createdAt,value
2018-10-03T00:00:21.815Z,13.57
2018-10-03T00:00:47.952Z,13.52
2018-10-03T00:01:14.081Z,13.54
2018-10-03T00:01:40.216Z,13.56
2018-10-03T00:02:06.351Z,13.67
2018-10-03T00:02:32.486Z,13.65
2018-10-03T00:02:58.613Z,13.63
2018-10-03T00:03:24.752Z,13.6
2018-10-03T00:03:50.888Z,13.68
2018-10-03T00:04:17.025Z,13.63
2018-10-03T00:04:43.197Z,13.74
2018-10-03T00:05:09.331Z,13.71
2018-10-03T00:05:35.462Z,13.65
2018-10-03T00:06:01.597Z,13.62
2018-10-03T00:06:27.729Z,13.52
2018-10-03T00:06:53.859Z,13.62
2018-10-03T00:07:19.988Z,13.71
2018-10-03T00:07:46.146Z,13.63
2018-10-03T00:08:12.281Z,13.6
2018-10-03T00:08:38.410Z,13.52
2018-10-03T00:09:04.573Z,13.5
2018-10-03T00:09:30.703Z,13.53
2018-10-03T00:09:56.853Z,13.44
2018-10-03T00:10:22.983Z,13.53
2018-10-03T00:10:49.113Z,13.54
2018-10-03T00:11:15.269Z,13.57
2018-10-03T00:11:41.403Z,13.68
2018-10-03T00:12:07.556Z,13.63
2018-10-03T00:12:33.710Z,13.56
2018-10-03T00:12:59.849Z,13.62
2018-10-03T00:13:25.984Z,13.68
2018-10-03T00:13:52.122Z,13.53
2018-10-03T00:14:18.258Z,13.57
2018-10-03T00:14:44.387Z,13.56
2018-10-03T00:15:10.514Z,13.59
2018-10-03T00:15:36.646Z,13.49
2018-10-03T00:16:02.781Z,13.41
2018-10-03T00:16:28.906Z,13.41
2018-10-03T00:16:55.064Z,13.41
2018-10-03T00:17:21.196Z,13.22
2018-10-03T00:17:47.326Z,13.23
2018-10-03T00:18:13.458Z,13.23
2018-10-03T00:18:39.608Z,13.19
2018-10-03T00:19:05.749Z,13.28
2018-10-03T00:19:31.887Z,13.25
2018-10-03T00:19:58.019Z,13.28
2018-10-03T00:20:24.149Z,13.2
2018-10-03T00:20:50.309Z,13.15
2018-10-03T00:21:16.465Z,13.15
2018-10-03T00:21:42.629Z,13.23
2018-10-03T00:22:08.752Z,13.23
2018-10-03T00:22:34.887Z,13.19
2018-10-03T00:23:01.022Z,13.18
2018-10-03T00:23:27.270Z,13.25
2018-10-03T00:23:53.325Z,13.33
2018-10-03T00:24:19.485Z,13.37
2018-10-03T00:24:45.635Z,13.39
2018-10-03T00:25:11.772Z,13.27
2018-10-03T00:25:37.930Z,13.25
2018-10-03T00:26:04.061Z,13.16
2018-10-03T00:26:30.190Z,13.16
2018-10-03T00:26:56.331Z,13.15
2018-10-03T00:27:22.458Z,13.25
2018-10-03T00:27:48.591Z,13.2
2018-10-03T00:28:14.721Z,13.27
2018-10-03T00:28:40.858Z,13.25
2018-10-03T00:29:06.997Z,13.16
2018-10-03T00:29:33.130Z,13.12
2018-10-03T00:29:59.289Z,13.18
2018-10-03T00:30:25.445Z,13.13
2018-10-03T00:30:51.582Z,13.16
2018-10-03T00:31:17.715Z,13.11
2018-10-03T00:31:43.850Z,13.3
2018-10-03T00:32:09.981Z,13.3
2018-10-03T00:32:36.105Z,13.16
2018-10-03T00:33:02.239Z,13.16
2018-10-03T00:33:28.374Z,13.12
2018-10-03T00:33:54.504Z,13.16
2018-10-03T00:34:20.631Z,13.11
2018-10-03T00:34:46.769Z,13.08
2018-10-03T00:35:12.906Z,13.08
2018-10-03T00:35:39.040Z,13.08
2018-10-03T00:36:05.177Z,13.12
2018-10-03T00:36:31.308Z,13.09
2018-10-03T00:36:57.518Z,12.98
2018-10-03T00:37:23.960Z,13
2018-10-03T00:37:50.037Z,13.03
2018-10-03T00:38:16.184Z,13.09
2018-10-03T00:38:42.347Z,13.09
2018-10-03T00:39:08.482Z,12.94
2018-10-03T00:39:34.643Z,12.9
2018-10-03T00:40:00.824Z,12.94
2018-10-03T00:40:27.033Z,12.9
2018-10-03T00:40:53.187Z,13
2018-10-03T00:41:19.348Z,12.98
2018-10-03T00:41:45.542Z,12.94
2018-10-03T00:42:11.804Z,12.98
2018-10-03T00:42:37.966Z,12.94
2018-10-03T00:43:04.138Z,13
2018-10-03T00:43:30.310Z,12.87
2018-10-03T00:43:56.472Z,12.98
2018-10-03T00:44:22.615Z,12.83
2018-10-03T00:44:48.741Z,12.8
2018-10-03T00:45:14.879Z,12.85
2018-10-03T00:45:41.010Z,12.82
2018-10-03T00:46:07.147Z,12.85
2018-10-03T00:46:33.322Z,12.8
2018-10-03T00:46:59.500Z,12.82
2018-10-03T00:47:25.618Z,12.83
2018-10-03T00:47:51.750Z,12.93
2018-10-03T00:48:17.879Z,12.97
2018-10-03T00:48:44.017Z,12.94
2018-10-03T00:49:10.150Z,13.03
2018-10-03T00:49:36.303Z,13.12
2018-10-03T00:50:02.443Z,13.11
2018-10-03T00:50:28.589Z,13.08
2018-10-03T00:50:54.732Z,13.09
2018-10-03T00:51:20.880Z,13.11
2018-10-03T00:51:47.022Z,13.04
2018-10-03T00:52:13.173Z,13.01
2018-10-03T00:52:39.308Z,13.04
2018-10-03T00:53:05.464Z,12.94
2018-10-03T00:53:31.606Z,13.03
2018-10-03T00:53:57.733Z,13.08
2018-10-03T00:54:23.867Z,13.11
2018-10-03T00:54:49.993Z,13.11
2018-10-03T00:55:16.119Z,13.12
2018-10-03T00:55:42.257Z,13.04
2018-10-03T00:56:08.389Z,13.19
2018-10-03T00:56:34.554Z,13.19
2018-10-03T00:57:00.729Z,13.25
2018-10-03T00:57:26.869Z,13.19
2018-10-03T00:57:52.994Z,13.16
2018-10-03T00:58:19.136Z,13.08
2018-10-03T00:58:45.325Z,13.05
2018-10-03T00:59:11.461Z,13.12
2018-10-03T00:59:37.592Z,13
2018-10-03T01:00:03.746Z,13.05
2018-10-03T01:00:29.872Z,13.11
2018-10-03T01:00:56.036Z,13.09
2018-10-03T01:01:22.162Z,13.11
2018-10-03T01:01:48.289Z,13.09
2018-10-03T01:02:14.425Z,13.03
2018-10-03T01:02:40.558Z,13.12
2018-10-03T01:03:06.691Z,13.09
2018-10-03T01:03:32.847Z,13.09
2018-10-03T01:03:59.536Z,13.11
2018-10-03T01:04:25.594Z,13.13
2018-10-03T01:04:51.753Z,13.18
2018-10-03T01:05:17.886Z,13.18
2018-10-03T01:05:44.029Z,13.15
2018-10-03T01:06:10.178Z,13.22
2018-10-03T01:06:36.326Z,13.33
2018-10-03T01:07:02.463Z,13.39
2018-10-03T01:07:28.596Z,13.35
2018-10-03T01:07:54.744Z,13.22
2018-10-03T01:08:20.895Z,13.3
2018-10-03T01:08:47.046Z,13.31
2018-10-03T01:09:14.377Z,13.3
2018-10-03T01:09:40.509Z,13.41
2018-10-03T01:10:06.663Z,13.39
2018-10-03T01:10:32.820Z,13.41
2018-10-03T01:10:58.979Z,13.38
2018-10-03T01:11:25.261Z,13.39
2018-10-03T01:11:52.337Z,13.28
2018-10-03T01:12:18.979Z,13.35
2018-10-03T01:12:47.123Z,13.25
2018-10-03T01:13:14.663Z,13.28
2018-10-03T01:13:40.960Z,13.2
2018-10-03T01:14:07.591Z,13.2
2018-10-03T01:14:33.747Z,13.2
2018-10-03T01:15:01.017Z,13.22
2018-10-03T01:15:27.441Z,13.22
2018-10-03T01:15:53.618Z,13.35
2018-10-03T01:16:19.762Z,13.28
2018-10-03T01:16:46.105Z,13.25
2018-10-03T01:17:12.200Z,13.3
2018-10-03T01:17:38.813Z,13.28
2018-10-03T01:18:04.951Z,13.3
2018-10-03T01:18:31.095Z,13.09
2018-10-03T01:18:57.320Z,13.08
2018-10-03T01:19:23.702Z,13.09
2018-10-03T01:19:49.994Z,13.12
2018-10-03T01:20:16.421Z,13.09
2018-10-03T01:20:42.883Z,13.11
2018-10-03T01:21:09.056Z,13.05
2018-10-03T01:21:35.362Z,13.11
2018-10-03T01:22:01.763Z,13.12
2018-10-03T01:22:28.283Z,13.08
2018-10-03T01:22:54.520Z,13.09
2018-10-03T01:23:20.690Z,13.11
2018-10-03T01:23:47.041Z,13.19
2018-10-03T01:24:13.625Z,13.13
2018-10-03T01:24:39.870Z,13.09
2018-10-03T01:25:06.308Z,13.16
2018-10-03T01:25:32.766Z,13
2018-10-03T01:25:59.786Z,13.12
2018-10-03T01:26:26.800Z,12.97
2018-10-03T01:26:52.935Z,12.97
2018-10-03T01:27:19.066Z,13.05
2018-10-03T01:27:45.431Z,13.08
2018-10-03T01:28:12.884Z,13.11
2018-10-03T01:28:39.220Z,13.18
2018-10-03T01:29:05.651Z,13.16
2018-10-03T01:29:32.044Z,13.13
2018-10-03T01:29:58.640Z,13.04
2018-10-03T01:30:25.116Z,13.09
2018-10-03T01:30:51.665Z,13.04
2018-10-03T01:31:17.836Z,13.12
2018-10-03T01:31:44.184Z,13.08
2018-10-03T01:32:10.981Z,12.97
2018-10-03T01:32:37.133Z,12.94
2018-10-03T01:33:03.308Z,12.94
2018-10-03T01:33:29.442Z,13.01
2018-10-03T01:33:56.120Z,13.05
2018-10-03T01:34:22.800Z,13.08
2018-10-03T01:34:49.177Z,13.13
2018-10-03T01:35:15.364Z,13.16
2018-10-03T01:35:41.496Z,13.2
2018-10-03T01:36:07.984Z,13.22
2018-10-03T01:36:34.565Z,13.16
2018-10-03T01:37:01.284Z,13.18
2018-10-03T01:37:27.459Z,13.19
2018-10-03T01:37:54.093Z,13.16
2018-10-03T01:38:20.465Z,13.16
2018-10-03T01:38:46.955Z,13.19
2018-10-03T01:39:13.843Z,13.11
2018-10-03T01:39:40.100Z,13.12
2018-10-03T01:40:06.225Z,13.11
2018-10-03T01:40:33.211Z,13.09
2018-10-03T01:40:59.352Z,13.03
2018-10-03T01:41:25.496Z,13.08
2018-10-03T01:41:51.683Z,13.01
2018-10-03T01:42:17.814Z,13.09
2018-10-03T01:42:43.973Z,13.03
2018-10-03T01:43:10.230Z,13.09
2018-10-03T01:43:36.342Z,13.09
2018-10-03T01:44:02.726Z,13.09
2018-10-03T01:44:28.869Z,13.11
2018-10-03T01:44:55.658Z,13.12
2018-10-03T01:45:21.733Z,13.08
2018-10-03T01:45:47.908Z,13.12
2018-10-03T01:46:14.077Z,13.05
2018-10-03T01:46:40.208Z,12.93
2018-10-03T01:47:06.514Z,12.95
2018-10-03T01:47:32.867Z,12.9
2018-10-03T01:47:59.051Z,12.95
2018-10-03T01:48:25.454Z,12.97
2018-10-03T01:48:51.913Z,13
2018-10-03T01:49:18.056Z,13.09
2018-10-03T01:49:44.429Z,13.11
2018-10-03T01:50:10.562Z,13.11
2018-10-03T01:50:36.686Z,13.11
2018-10-03T01:51:02.855Z,13.11
2018-10-03T01:51:28.996Z,13.18
2018-10-03T01:51:55.154Z,13.12
2018-10-03T01:52:21.298Z,13.11
2018-10-03T01:52:47.434Z,13.12
2018-10-03T01:53:13.562Z,13.05
2018-10-03T01:53:39.701Z,13.03
2018-10-03T01:54:05.838Z,13.08
2018-10-03T01:54:31.967Z,13.09
2018-10-03T01:54:58.104Z,13.16
2018-10-03T01:55:24.257Z,13.12
2018-10-03T01:55:50.386Z,13.11
2018-10-03T01:56:16.515Z,13.12
2018-10-03T01:56:42.671Z,13.11
2018-10-03T01:57:08.807Z,13.11
2018-10-03T01:57:34.965Z,13.05
2018-10-03T01:58:01.095Z,13.12
2018-10-03T01:58:27.229Z,13.03
2018-10-03T01:58:53.391Z,13.09
2018-10-03T01:59:19.536Z,13
2018-10-03T01:59:45.675Z,13.05
2018-10-03T02:00:11.835Z,12.97
2018-10-03T02:00:38.005Z,13.03
2018-10-03T02:01:04.141Z,13.09
2018-10-03T02:01:30.276Z,13.11
2018-10-03T02:01:56.408Z,13.08
2018-10-03T02:02:22.541Z,13.12
2018-10-03T02:02:48.671Z,13.05
2018-10-03T02:03:14.808Z,13.11
2018-10-03T02:03:40.940Z,12.98
2018-10-03T02:04:07.077Z,12.95
2018-10-03T02:04:33.208Z,12.94
2018-10-03T02:04:59.366Z,12.98
2018-10-03T02:05:25.503Z,12.98
2018-10-03T02:05:51.631Z,13.04
2018-10-03T02:06:17.763Z,13.09
2018-10-03T02:06:43.936Z,13.05
2018-10-03T02:07:10.082Z,13.09
2018-10-03T02:07:36.215Z,13.13
2018-10-03T02:08:02.343Z,13.11
2018-10-03T02:08:28.473Z,13.15
2018-10-03T02:08:54.602Z,13.18
2018-10-03T02:09:20.740Z,13.11
2018-10-03T02:09:46.873Z,13.12
2018-10-03T02:10:13.006Z,13.04
2018-10-03T02:10:39.140Z,13.13
2018-10-03T02:11:05.321Z,13.13
2018-10-03T02:11:31.448Z,13.13
2018-10-03T02:11:57.608Z,13.09
2018-10-03T02:12:23.751Z,13.12
2018-10-03T02:12:49.879Z,13.15
2018-10-03T02:13:16.011Z,13.08
2018-10-03T02:13:42.139Z,13.08
2018-10-03T02:14:08.272Z,13.03
2018-10-03T02:14:34.445Z,12.95
2018-10-03T02:15:00.607Z,13.11
2018-10-03T02:15:26.737Z,13.01
2018-10-03T02:15:52.900Z,13.09
2018-10-03T02:16:19.036Z,13.09
2018-10-03T02:16:45.168Z,12.98
2018-10-03T02:17:11.320Z,12.97
2018-10-03T02:17:37.464Z,13.05
2018-10-03T02:18:03.628Z,13.05
2018-10-03T02:18:29.809Z,13
2018-10-03T02:18:55.940Z,13.05
2018-10-03T02:19:22.094Z,13.05
2018-10-03T02:19:48.224Z,13.09
2018-10-03T02:20:14.385Z,13.11
2018-10-03T02:20:40.518Z,13.04
2018-10-03T02:21:06.651Z,13.04
2018-10-03T02:21:32.782Z,13.11
2018-10-03T02:21:58.920Z,13.08
2018-10-03T02:22:25.074Z,13.08
2018-10-03T02:22:51.235Z,13.05
2018-10-03T02:23:17.361Z,13.09
2018-10-03T02:23:43.493Z,13.09
2018-10-03T02:24:09.633Z,13.08
2018-10-03T02:24:35.789Z,13
2018-10-03T02:25:01.923Z,12.95
2018-10-03T02:25:28.083Z,12.94
2018-10-03T02:25:54.220Z,12.95
2018-10-03T02:26:20.359Z,12.87
2018-10-03T02:26:46.511Z,12.97
2018-10-03T02:27:12.649Z,12.98
2018-10-03T02:27:38.783Z,12.95
2018-10-03T02:28:04.911Z,12.91
2018-10-03T02:28:31.047Z,12.9
2018-10-03T02:28:57.227Z,12.91
2018-10-03T02:29:23.387Z,12.9
2018-10-03T02:29:49.547Z,12.83
2018-10-03T02:30:15.715Z,12.8
2018-10-03T02:30:41.872Z,12.94
2018-10-03T02:31:08.005Z,12.97
2018-10-03T02:31:34.139Z,12.98
2018-10-03T02:32:00.334Z,13
2018-10-03T02:32:26.482Z,13.03
2018-10-03T02:32:52.642Z,13.03
2018-10-03T02:33:18.831Z,12.97
2018-10-03T02:33:44.989Z,13.04
2018-10-03T02:34:11.151Z,13.01
2018-10-03T02:34:37.329Z,12.98
2018-10-03T02:35:03.475Z,12.94
2018-10-03T02:35:29.608Z,12.95
2018-10-03T02:35:55.762Z,12.91
2018-10-03T02:36:21.922Z,12.91
2018-10-03T02:36:48.116Z,12.8
2018-10-03T02:37:14.269Z,12.8
2018-10-03T02:37:40.449Z,12.8
2018-10-03T02:38:06.581Z,12.87
2018-10-03T02:38:32.709Z,12.87
2018-10-03T02:38:58.849Z,12.93
2018-10-03T02:39:25.036Z,12.93
2018-10-03T02:39:51.183Z,12.9
2018-10-03T02:40:17.338Z,12.97
2018-10-03T02:40:43.491Z,12.94
2018-10-03T02:41:09.628Z,12.91
2018-10-03T02:41:35.852Z,12.82
2018-10-03T02:42:01.980Z,12.82
2018-10-03T02:42:28.138Z,12.91
2018-10-03T02:42:54.291Z,12.87
2018-10-03T02:43:20.426Z,12.93
2018-10-03T02:43:46.583Z,12.91
2018-10-03T02:44:12.737Z,12.93
2018-10-03T02:44:38.922Z,12.94
2018-10-03T02:45:05.079Z,12.85
2018-10-03T02:45:31.214Z,12.86
2018-10-03T02:45:57.364Z,13
2018-10-03T02:46:23.514Z,12.94
2018-10-03T02:46:49.660Z,12.95
2018-10-03T02:47:15.834Z,13
2018-10-03T02:47:42.004Z,13
2018-10-03T02:48:08.146Z,13.03
2018-10-03T02:48:34.276Z,13.01
2018-10-03T02:49:00.431Z,12.95
2018-10-03T02:49:26.587Z,12.93
2018-10-03T02:49:52.726Z,12.93
2018-10-03T02:50:18.853Z,12.97
2018-10-03T02:50:45.038Z,12.91
2018-10-03T02:51:11.241Z,12.95
2018-10-03T02:51:37.378Z,13
2018-10-03T02:52:03.506Z,12.93
2018-10-03T02:52:29.664Z,12.93
2018-10-03T02:52:55.797Z,12.95
2018-10-03T02:53:21.937Z,12.98
2018-10-03T02:53:48.081Z,12.98
2018-10-03T02:54:14.211Z,12.95
2018-10-03T02:54:40.365Z,12.98
2018-10-03T02:55:06.539Z,12.91
2018-10-03T02:55:32.696Z,12.93
2018-10-03T02:55:58.827Z,12.85
2018-10-03T02:56:24.959Z,12.8
2018-10-03T02:56:51.116Z,12.82
2018-10-03T02:57:17.271Z,12.85
2018-10-03T02:57:43.406Z,12.87
2018-10-03T02:58:09.552Z,12.91
2018-10-03T02:58:35.683Z,12.95
2018-10-03T02:59:01.819Z,12.91
2018-10-03T02:59:27.976Z,12.95
2018-10-03T02:59:54.129Z,12.94
2018-10-03T03:00:20.263Z,12.9
2018-10-03T03:00:46.425Z,12.94
2018-10-03T03:01:12.587Z,12.85
2018-10-03T03:01:38.806Z,12.85
2018-10-03T03:02:04.936Z,12.8
2018-10-03T03:02:31.069Z,12.83
2018-10-03T03:02:57.228Z,12.93
2018-10-03T03:03:23.359Z,12.94
2018-10-03T03:03:49.496Z,12.95
2018-10-03T03:04:15.655Z,12.97
2018-10-03T03:04:41.794Z,12.95
2018-10-03T03:05:07.928Z,12.9
2018-10-03T03:05:34.070Z,13
2018-10-03T03:06:00.242Z,12.97
2018-10-03T03:06:26.376Z,12.98
2018-10-03T03:06:52.504Z,12.97
2018-10-03T03:07:18.662Z,13.01
2018-10-03T03:07:44.836Z,13.09
2018-10-03T03:08:10.972Z,13.11
2018-10-03T03:08:37.147Z,13.08
2018-10-03T03:09:03.361Z,13.01
2018-10-03T03:09:29.414Z,13.08
2018-10-03T03:09:55.568Z,13.15
2018-10-03T03:10:21.750Z,13.13
2018-10-03T03:10:47.985Z,13.08
2018-10-03T03:11:14.073Z,13.11
2018-10-03T03:11:40.229Z,13.08
2018-10-03T03:12:06.415Z,13.09
2018-10-03T03:12:32.597Z,13.15
2018-10-03T03:12:58.726Z,13.13
2018-10-03T03:13:24.876Z,13.12
2018-10-03T03:13:51.007Z,13.11
2018-10-03T03:14:17.149Z,12.98
2018-10-03T03:14:43.304Z,12.97
2018-10-03T03:15:09.460Z,13
2018-10-03T03:15:35.610Z,13.01
2018-10-03T03:16:01.743Z,13.08
2018-10-03T03:16:27.900Z,13.11
2018-10-03T03:16:54.032Z,13.18
2018-10-03T03:17:20.169Z,13.15
2018-10-03T03:17:46.302Z,13.12
2018-10-03T03:18:12.459Z,13.19
2018-10-03T03:18:38.586Z,13.08
2018-10-03T03:19:04.741Z,13.08
2018-10-03T03:19:30.872Z,13.08
2018-10-03T03:19:57.035Z,13.09
2018-10-03T03:20:23.195Z,13.11
2018-10-03T03:20:49.343Z,13.13
2018-10-03T03:21:15.493Z,13.11
2018-10-03T03:21:41.679Z,13.08
2018-10-03T03:22:07.831Z,13.05
2018-10-03T03:22:33.967Z,13.01
2018-10-03T03:23:00.102Z,13.01
2018-10-03T03:23:26.255Z,13.01
2018-10-03T03:23:52.390Z,13.11
2018-10-03T03:24:18.543Z,13.05
2018-10-03T03:24:44.695Z,13.11
2018-10-03T03:25:10.851Z,13.12
2018-10-03T03:25:36.984Z,13.13
2018-10-03T03:26:03.132Z,13.11
2018-10-03T03:26:29.267Z,13.2
2018-10-03T03:26:55.445Z,13.11
2018-10-03T03:27:21.596Z,13.16
2018-10-03T03:27:47.730Z,13.13
2018-10-03T03:28:13.885Z,13.16
2018-10-03T03:28:40.016Z,13.19
2018-10-03T03:29:06.146Z,13.15
2018-10-03T03:29:32.283Z,13.22
2018-10-03T03:29:58.483Z,13.18
2018-10-03T03:30:24.689Z,13.08
2018-10-03T03:30:50.846Z,13.13
2018-10-03T03:31:16.978Z,13.11
2018-10-03T03:31:43.152Z,13.12
2018-10-03T03:32:09.333Z,13.05
2018-10-03T03:32:35.536Z,13.09
2018-10-03T03:33:01.689Z,13.11
2018-10-03T03:33:27.849Z,13.16
2018-10-03T03:33:53.984Z,13.12
2018-10-03T03:34:20.141Z,13.15
2018-10-03T03:34:46.281Z,13.2
2018-10-03T03:35:12.457Z,13.16
2018-10-03T03:35:38.588Z,13.25
2018-10-03T03:36:04.743Z,13.19
2018-10-03T03:36:30.914Z,13.05
2018-10-03T03:36:57.066Z,13.09
2018-10-03T03:37:23.222Z,13.2
2018-10-03T03:37:49.352Z,13.19
2018-10-03T03:38:15.503Z,13.18
2018-10-03T03:38:41.665Z,13.13
2018-10-03T03:39:07.818Z,13.2
2018-10-03T03:39:33.971Z,13.22
2018-10-03T03:40:00.107Z,13.33
2018-10-03T03:40:26.281Z,13.23
2018-10-03T03:40:52.466Z,13.23
2018-10-03T03:41:18.604Z,13.25
2018-10-03T03:41:44.735Z,13.27
2018-10-03T03:42:10.898Z,13.22
2018-10-03T03:42:37.024Z,13.18
2018-10-03T03:43:03.164Z,13.13
2018-10-03T03:43:29.347Z,13.27
2018-10-03T03:43:55.477Z,13.12
2018-10-03T03:44:21.679Z,13.09
2018-10-03T03:44:47.820Z,13.2
2018-10-03T03:45:13.994Z,13.12
2018-10-03T03:45:40.151Z,13.12
2018-10-03T03:46:06.308Z,13.18
2018-10-03T03:46:32.448Z,13.23
2018-10-03T03:46:58.599Z,13.18
2018-10-03T03:47:24.758Z,13.18
2018-10-03T03:47:50.925Z,13.04
2018-10-03T03:48:17.088Z,13.11
2018-10-03T03:48:43.219Z,13.12
2018-10-03T03:49:09.360Z,13.13
2018-10-03T03:49:35.514Z,13.12
2018-10-03T03:50:01.695Z,13.08
2018-10-03T03:50:27.830Z,13.08
2018-10-03T03:50:53.960Z,13.11
2018-10-03T03:51:20.117Z,13.05
2018-10-03T03:51:46.270Z,13.11
2018-10-03T03:52:12.402Z,13.12
2018-10-03T03:52:38.635Z,13.18
2018-10-03T03:53:04.811Z,13.09
2018-10-03T03:53:30.969Z,13.09
2018-10-03T03:53:57.187Z,13.15
2018-10-03T03:54:23.304Z,13.18
2018-10-03T03:54:49.444Z,13.15
2018-10-03T03:55:15.600Z,13.13
2018-10-03T03:55:41.753Z,13.13
2018-10-03T03:56:07.893Z,13.09
2018-10-03T03:56:34.044Z,13.09
2018-10-03T03:57:00.207Z,13.01
2018-10-03T03:57:26.348Z,13.04
2018-10-03T03:57:52.463Z,13.08
2018-10-03T03:58:18.598Z,13.11
2018-10-03T03:58:44.731Z,13.15
2018-10-03T03:59:10.857Z,13.12
2018-10-03T03:59:37.065Z,13.12
2018-10-03T04:00:03.194Z,13.08
2018-10-03T04:00:29.347Z,13.11
2018-10-03T04:00:55.483Z,13.11
2018-10-03T04:01:21.641Z,13.15
2018-10-03T04:01:47.796Z,13.11
2018-10-03T04:02:13.928Z,13.12
2018-10-03T04:02:40.085Z,13.09
2018-10-03T04:03:06.273Z,13.04
2018-10-03T04:03:32.405Z,13.05
2018-10-03T04:03:58.556Z,13.12
2018-10-03T04:04:24.695Z,13.11
2018-10-03T04:04:50.832Z,13.08
2018-10-03T04:05:16.965Z,13.11
2018-10-03T04:05:43.101Z,13.11
2018-10-03T04:06:09.258Z,13.08
2018-10-03T04:06:35.393Z,13.05
2018-10-03T04:07:01.553Z,13.12
2018-10-03T04:07:27.689Z,13.08
2018-10-03T04:07:53.816Z,13.13
2018-10-03T04:08:20.017Z,13.18
2018-10-03T04:08:46.176Z,13.13
2018-10-03T04:09:12.305Z,13.12
2018-10-03T04:09:38.443Z,13.09
2018-10-03T04:10:04.575Z,13.16
2018-10-03T04:10:30.760Z,13.2
2018-10-03T04:10:56.925Z,13.16
2018-10-03T04:11:23.099Z,13.16
2018-10-03T04:11:49.253Z,13.12
2018-10-03T04:12:15.408Z,13.11
2018-10-03T04:12:41.533Z,13.11
2018-10-03T04:13:07.669Z,13.11
2018-10-03T04:13:33.823Z,13.08
2018-10-03T04:13:59.957Z,13.08
2018-10-03T04:14:26.112Z,13.15
2018-10-03T04:14:52.246Z,13.18
2018-10-03T04:15:18.382Z,13.19
2018-10-03T04:15:44.531Z,13.18
2018-10-03T04:16:10.666Z,13.18
2018-10-03T04:16:36.804Z,13.18
2018-10-03T04:17:02.946Z,13.16
2018-10-03T04:17:29.092Z,13.18
2018-10-03T04:17:55.273Z,13.13
2018-10-03T04:18:21.405Z,13.19
2018-10-03T04:18:47.575Z,13.19
2018-10-03T04:19:13.699Z,13.11
2018-10-03T04:19:39.872Z,13.08
2018-10-03T04:20:06.019Z,13.12
2018-10-03T04:20:32.152Z,13.12
2018-10-03T04:20:58.291Z,13.12
2018-10-03T04:21:24.419Z,13.13
2018-10-03T04:21:50.556Z,13.18
2018-10-03T04:22:16.688Z,13.15
2018-10-03T04:22:42.852Z,13.15
2018-10-03T04:23:08.984Z,13.08
2018-10-03T04:23:35.135Z,13.11
2018-10-03T04:24:01.272Z,13.11
2018-10-03T04:24:27.405Z,13.19
2018-10-03T04:24:53.540Z,13.12
2018-10-03T04:25:19.675Z,13.18
2018-10-03T04:25:45.802Z,13.12
2018-10-03T04:26:11.940Z,13.12
2018-10-03T04:26:38.102Z,13.16
2018-10-03T04:27:04.228Z,13.27
2018-10-03T04:27:30.365Z,13.11
2018-10-03T04:27:56.524Z,13.13
2018-10-03T04:28:22.657Z,13.12
2018-10-03T04:28:48.799Z,13.11
2018-10-03T04:29:14.928Z,13.09
2018-10-03T04:29:41.064Z,13.15
2018-10-03T04:30:07.232Z,13.13
2018-10-03T04:30:33.361Z,13.05
2018-10-03T04:30:59.487Z,13.11
2018-10-03T04:31:25.622Z,13.04
2018-10-03T04:31:51.750Z,13.04
2018-10-03T04:32:17.886Z,13.05
2018-10-03T04:32:44.021Z,13.08
2018-10-03T04:33:10.168Z,13.11
2018-10-03T04:33:36.303Z,13.08
2018-10-03T04:34:02.480Z,13.15
2018-10-03T04:34:28.609Z,13.09
2018-10-03T04:34:54.745Z,13.05
2018-10-03T04:35:20.871Z,13.11
2018-10-03T04:35:47.097Z,13.11
2018-10-03T04:36:13.173Z,13.16
2018-10-03T04:36:39.327Z,13.18
2018-10-03T04:37:05.481Z,13.16
2018-10-03T04:37:31.616Z,13.04
2018-10-03T04:37:57.771Z,13.08
2018-10-03T04:38:23.905Z,13.09
2018-10-03T04:38:50.042Z,13.19
2018-10-03T04:39:16.200Z,13.16
2018-10-03T04:39:42.327Z,13.16
2018-10-03T04:40:08.508Z,13.15
2018-10-03T04:40:34.644Z,13.16
2018-10-03T04:41:00.793Z,13.11
2018-10-03T04:41:26.954Z,13.22
2018-10-03T04:41:53.124Z,13.15
2018-10-03T04:42:19.389Z,13.19
2018-10-03T04:42:45.454Z,13.18
2018-10-03T04:43:11.582Z,13.15
2018-10-03T04:43:37.715Z,13.08
2018-10-03T04:44:03.854Z,13.11
2018-10-03T04:44:30.014Z,13.04
2018-10-03T04:44:56.166Z,13.09
2018-10-03T04:45:22.319Z,13.04
2018-10-03T04:45:48.450Z,13.03
2018-10-03T04:46:14.579Z,12.95
2018-10-03T04:46:40.703Z,13
2018-10-03T04:47:06.838Z,12.98
2018-10-03T04:47:32.970Z,13.01
2018-10-03T04:47:59.097Z,12.94
2018-10-03T04:48:25.229Z,12.98
2018-10-03T04:48:51.427Z,12.97
2018-10-03T04:49:17.534Z,12.97
2018-10-03T04:49:43.670Z,12.97
2018-10-03T04:50:09.804Z,13.01
2018-10-03T04:50:35.934Z,12.93
2018-10-03T04:51:02.065Z,12.86
2018-10-03T04:51:28.196Z,12.95
2018-10-03T04:51:54.331Z,12.86
2018-10-03T04:52:20.463Z,12.91
2018-10-03T04:52:46.602Z,13
2018-10-03T04:53:12.758Z,12.95
2018-10-03T04:53:38.890Z,12.97
2018-10-03T04:54:05.023Z,13
2018-10-03T04:54:31.168Z,12.95
2018-10-03T04:54:57.290Z,12.93
2018-10-03T04:55:23.448Z,13.03
2018-10-03T04:55:49.575Z,12.98
2018-10-03T04:56:15.712Z,13.01
2018-10-03T04:56:41.867Z,12.97
2018-10-03T04:57:08.007Z,13
2018-10-03T04:57:34.136Z,12.9
2018-10-03T04:58:00.262Z,12.97
2018-10-03T04:58:26.396Z,12.94
2018-10-03T04:58:52.580Z,12.94
2018-10-03T04:59:18.720Z,12.97
2018-10-03T04:59:44.856Z,12.93
2018-10-03T05:00:10.988Z,12.94
2018-10-03T05:00:37.116Z,12.86
2018-10-03T05:01:03.255Z,12.86
2018-10-03T05:01:29.389Z,12.86
2018-10-03T05:01:55.546Z,12.82
2018-10-03T05:02:21.675Z,12.87
2018-10-03T05:02:47.836Z,12.98
2018-10-03T05:03:13.973Z,12.9
2018-10-03T05:03:40.103Z,12.91
2018-10-03T05:04:06.243Z,12.86
2018-10-03T05:04:32.372Z,12.91
2018-10-03T05:04:58.505Z,12.85
2018-10-03T05:05:24.636Z,12.97
2018-10-03T05:05:50.771Z,12.93
2018-10-03T05:06:16.927Z,12.86
2018-10-03T05:06:43.058Z,12.85
2018-10-03T05:07:09.203Z,12.9
2018-10-03T05:07:35.345Z,12.9
2018-10-03T05:08:01.481Z,12.79
2018-10-03T05:08:27.607Z,12.83
2018-10-03T05:08:53.744Z,12.83
2018-10-03T05:09:19.879Z,12.79
2018-10-03T05:09:46.013Z,12.8
2018-10-03T05:10:12.200Z,12.8
2018-10-03T05:10:38.342Z,12.75
2018-10-03T05:11:04.471Z,12.85
2018-10-03T05:11:30.657Z,12.75
2018-10-03T05:11:56.746Z,12.67
2018-10-03T05:12:22.921Z,12.75
2018-10-03T05:12:49.052Z,12.75
2018-10-03T05:13:15.190Z,12.87
2018-10-03T05:13:41.337Z,12.82
2018-10-03T05:14:07.465Z,12.78
2018-10-03T05:14:33.605Z,12.7
2018-10-03T05:14:59.753Z,12.7
2018-10-03T05:15:25.885Z,12.75
2018-10-03T05:15:52.016Z,12.82
2018-10-03T05:16:18.152Z,12.83
2018-10-03T05:16:44.310Z,12.82
2018-10-03T05:17:10.443Z,12.85
2018-10-03T05:17:36.580Z,12.82
2018-10-03T05:18:02.713Z,12.78
2018-10-03T05:18:28.843Z,12.75
2018-10-03T05:18:54.989Z,12.86
2018-10-03T05:19:21.124Z,12.83
2018-10-03T05:19:47.254Z,12.87
2018-10-03T05:20:13.387Z,12.78
2018-10-03T05:20:39.544Z,12.83
2018-10-03T05:21:05.707Z,12.82
2018-10-03T05:21:31.861Z,12.82
2018-10-03T05:21:57.988Z,12.78
2018-10-03T05:22:24.141Z,12.68
2018-10-03T05:22:50.303Z,12.82
2018-10-03T05:23:16.432Z,12.8
2018-10-03T05:23:42.601Z,12.65
2018-10-03T05:24:08.729Z,12.65
2018-10-03T05:24:34.865Z,12.68
2018-10-03T05:25:01.014Z,12.73
2018-10-03T05:25:27.176Z,12.86
2018-10-03T05:25:53.314Z,12.85
2018-10-03T05:26:19.448Z,12.83
2018-10-03T05:26:45.576Z,12.82
2018-10-03T05:27:11.706Z,12.93
2018-10-03T05:27:37.896Z,12.93
2018-10-03T05:28:04.043Z,12.98
2018-10-03T05:28:30.173Z,12.98
2018-10-03T05:28:56.306Z,12.94
2018-10-03T05:29:22.464Z,12.85
2018-10-03T05:29:48.601Z,12.86
2018-10-03T05:30:14.760Z,12.8
2018-10-03T05:30:40.896Z,12.8
2018-10-03T05:31:07.027Z,12.79
2018-10-03T05:31:33.166Z,12.8
2018-10-03T05:31:59.300Z,12.91
2018-10-03T05:32:25.434Z,12.97
2018-10-03T05:32:51.573Z,12.94
2018-10-03T05:33:17.758Z,13
2018-10-03T05:33:43.845Z,12.95
2018-10-03T05:34:09.976Z,12.94
2018-10-03T05:34:36.113Z,12.9
2018-10-03T05:35:02.248Z,12.94
2018-10-03T05:35:28.406Z,12.8
2018-10-03T05:35:54.537Z,12.82
2018-10-03T05:36:20.699Z,12.93
2018-10-03T05:36:46.831Z,12.82
2018-10-03T05:37:12.986Z,12.82
2018-10-03T05:37:39.121Z,12.95
2018-10-03T05:38:05.248Z,12.8
2018-10-03T05:38:31.406Z,12.8
2018-10-03T05:38:57.539Z,12.95